Time;durP1;ratioP1;P1;durP2;ratioP2;P2;SDS_P1;SDS_P2;PMS_P1;PMS_P2;Temp;Humidity;BMP_temperature;BMP_pressure;BME280_temperature;BME280_humidity;BME280_pressure;Samples;Min_cycle;Max_cycle;Signal;HPM_P1;HPM_P2
2024/01/29 00:01:49;;;;;;;5.93;3.92;;;22.40;37.30;;;;;;5074553;28;20218;-54
2024/01/29 00:04:16;;;;;;;5.72;3.25;;;22.40;37.40;;;;;;5074961;28;20278;-56
2024/01/29 00:06:44;;;;;;;5.78;3.70;;;22.40;37.50;;;;;;5075162;28;20242;-57
2024/01/29 00:09:11;;;;;;;7.68;3.55;;;22.40;37.40;;;;;;5074408;28;20183;-55
2024/01/29 00:11:37;;;;;;;4.72;3.70;;;22.40;37.40;;;;;;5075059;28;20237;-53
2024/01/29 00:14:05;;;;;;;5.60;4.18;;;22.40;38.00;;;;;;5074893;28;20277;-54
2024/01/29 00:16:32;;;;;;;5.10;3.63;;;22.40;37.30;;;;;;5074145;28;20348;-53
2024/01/29 00:18:59;;;;;;;5.75;3.70;;;22.40;37.30;;;;;;5074550;28;20231;-55
2024/01/29 00:21:26;;;;;;;5.28;3.85;;;22.50;37.40;;;;;;5074475;28;20715;-57
2024/01/29 00:23:56;;;;;;;4.68;3.50;;;22.50;37.50;;;;;;5074236;28;20270;-54
2024/01/29 00:26:23;;;;;;;8.60;3.90;;;22.50;37.50;;;;;;5074208;28;20580;-53
2024/01/29 00:28:49;;;;;;;5.60;4.07;;;22.50;37.40;;;;;;5073601;28;20282;-52
2024/01/29 00:31:17;;;;;;;5.82;4.45;;;22.50;37.40;;;;;;5074287;28;20313;-54
2024/01/29 00:33:46;;;;;;;6.53;3.80;;;22.50;37.40;;;;;;5074452;28;20187;-54
2024/01/29 00:36:13;;;;;;;6.65;4.00;;;22.50;37.40;;;;;;5074570;28;20242;-52
2024/01/29 00:38:39;;;;;;;5.70;4.03;;;22.50;37.40;;;;;;5073835;28;20215;-56
2024/01/29 00:41:08;;;;;;;6.78;3.72;;;22.60;37.50;;;;;;5074448;28;20307;-57
2024/01/29 00:43:34;;;;;;;6.15;3.92;;;22.60;37.50;;;;;;5074211;28;20226;-56
2024/01/29 00:46:01;;;;;;;5.70;3.60;;;22.60;37.50;;;;;;5073796;28;20219;-57
2024/01/29 00:48:28;;;;;;;6.57;3.75;;;22.60;37.50;;;;;;5074173;28;20406;-53
2024/01/29 00:50:56;;;;;;;5.20;3.85;;;22.60;37.40;;;;;;5074136;28;20265;-52
2024/01/29 00:53:23;;;;;;;4.80;3.85;;;22.60;37.40;;;;;;5073593;28;20191;-53
2024/01/29 00:55:50;;;;;;;7.47;3.63;;;22.50;37.40;;;;;;5073739;28;20250;-56
2024/01/29 00:58:18;;;;;;;9.35;3.67;;;22.50;37.50;;;;;;5073792;28;20191;-54
2024/01/29 01:00:45;;;;;;;5.45;4.05;;;22.50;37.60;;;;;;5073572;28;20219;-53
2024/01/29 01:03:12;;;;;;;6.18;3.67;;;22.40;37.60;;;;;;5073856;28;20190;-54
2024/01/29 01:05:39;;;;;;;6.38;4.10;;;22.40;37.70;;;;;;5073732;28;20307;-55
2024/01/29 01:08:06;;;;;;;6.60;4.10;;;22.40;37.80;;;;;;5073069;28;20187;-57
2024/01/29 01:10:33;;;;;;;6.55;3.88;;;22.40;37.80;;;;;;5074017;28;20305;-56
2024/01/29 01:13:00;;;;;;;5.18;4.10;;;22.40;37.90;;;;;;5073378;28;20720;-56
2024/01/29 01:15:30;;;;;;;5.18;3.60;;;22.40;37.80;;;;;;5072867;28;20210;-57
2024/01/29 01:17:57;;;;;;;5.80;4.18;;;22.40;37.80;;;;;;5072185;28;20397;-56
2024/01/29 01:20:24;;;;;;;4.97;3.83;;;22.50;37.90;;;;;;5072211;28;20234;-53
2024/01/29 01:22:51;;;;;;;5.72;3.78;;;22.50;38.60;;;;;;5072751;28;20645;-54
2024/01/29 01:25:18;;;;;;;8.55;4.00;;;22.40;37.80;;;;;;5073219;28;20305;-55
2024/01/29 01:27:45;;;;;;;5.82;4.22;;;22.50;37.90;;;;;;5073014;28;20744;-57
2024/01/29 01:30:13;;;;;;;6.13;4.00;;;22.50;37.90;;;;;;5072861;28;20218;-54
2024/01/29 01:32:41;;;;;;;5.55;3.50;;;22.50;37.90;;;;;;5072936;28;20278;-57
2024/01/29 01:35:08;;;;;;;5.32;3.97;;;22.50;37.90;;;;;;5072807;28;20214;-55
2024/01/29 01:37:35;;;;;;;5.28;4.07;;;22.60;37.90;;;;;;5072798;28;20278;-55
2024/01/29 01:40:02;;;;;;;5.30;3.45;;;22.60;38.00;;;;;;5072640;28;20905;-56
2024/01/29 01:42:29;;;;;;;7.05;4.07;;;22.60;38.00;;;;;;5073023;28;20278;-57
2024/01/29 01:44:56;;;;;;;5.45;3.70;;;22.60;38.00;;;;;;5072610;28;20197;-54
2024/01/29 01:47:23;;;;;;;7.18;3.85;;;22.60;38.10;;;;;;5072984;28;20211;-54
2024/01/29 01:49:52;;;;;;;6.40;4.15;;;22.60;38.00;;;;;;5072906;28;20197;-53
2024/01/29 01:52:20;;;;;;;6.68;3.30;;;22.60;38.00;;;;;;5072507;28;20190;-53
2024/01/29 01:54:48;;;;;;;4.93;3.70;;;22.60;38.00;;;;;;5072387;28;20190;-54
2024/01/29 01:57:15;;;;;;;5.43;3.75;;;22.60;37.90;;;;;;5072479;28;20274;-55
2024/01/29 01:59:42;;;;;;;4.63;3.80;;;22.60;37.90;;;;;;5072116;28;20457;-53
2024/01/29 02:02:09;;;;;;;4.63;3.78;;;22.50;37.90;;;;;;5072441;28;20281;-52
2024/01/29 02:04:36;;;;;;;4.30;3.50;;;22.50;38.00;;;;;;5072334;28;20662;-56
2024/01/29 02:07:04;;;;;;;4.88;3.55;;;22.50;38.10;;;;;;5072517;28;20215;-53
2024/01/29 02:09:33;;;;;;;5.57;3.65;;;22.50;38.30;;;;;;5072277;28;20722;-55
2024/01/29 02:12:01;;;;;;;5.75;4.25;;;22.40;38.40;;;;;;5072826;28;20307;-52
2024/01/29 02:14:27;;;;;;;4.70;3.78;;;22.40;38.40;;;;;;5072257;28;20183;-53
2024/01/29 02:16:54;;;;;;;4.88;3.50;;;22.40;38.40;;;;;;5072088;28;20612;-56
2024/01/29 02:19:21;;;;;;;5.32;3.83;;;22.40;38.40;;;;;;5072461;28;20230;-56
2024/01/29 02:21:49;;;;;;;4.40;3.55;;;22.40;39.10;;;;;;5072263;28;20331;-56
2024/01/29 02:24:17;;;;;;;7.97;3.25;;;22.40;38.40;;;;;;5072073;28;20653;-56
2024/01/29 02:26:47;;;;;;;5.10;3.58;;;22.40;38.40;;;;;;5072616;28;20306;-55
2024/01/29 02:29:14;;;;;;;4.85;3.95;;;22.50;38.50;;;;;;5072080;28;20195;-57
2024/01/29 02:31:40;;;;;;;4.03;3.53;;;22.50;39.10;;;;;;5072209;28;20793;-55
2024/01/29 02:34:07;;;;;;;5.38;3.78;;;22.50;38.50;;;;;;5072076;28;20724;-55
2024/01/29 02:36:34;;;;;;;4.07;3.42;;;22.50;38.50;;;;;;5071545;28;20225;-57
2024/01/29 02:39:01;;;;;;;4.88;3.63;;;22.50;38.50;;;;;;5071913;28;20632;-57
2024/01/29 02:41:29;;;;;;;5.88;4.03;;;22.50;38.50;;;;;;5071961;28;20297;-54
2024/01/29 02:43:56;;;;;;;4.65;3.40;;;22.50;38.50;;;;;;5071585;28;20191;-57
2024/01/29 02:46:23;;;;;;;4.97;4.05;;;22.50;38.50;;;;;;5071863;28;20215;-54
2024/01/29 02:48:50;;;;;;;4.55;3.78;;;22.60;38.60;;;;;;5071929;28;20197;-52
2024/01/29 02:51:16;;;;;;;5.30;3.67;;;22.60;38.60;;;;;;5071920;28;20313;-56
2024/01/29 02:53:43;;;;;;;7.80;4.30;;;22.60;38.60;;;;;;5075657;28;20649;-54
2024/01/29 02:56:10;;;;;;;4.85;3.70;;;22.60;38.60;;;;;;5076311;28;20317;-53
2024/01/29 02:58:38;;;;;;;3.92;3.50;;;22.60;38.60;;;;;;5075887;28;20193;-54
2024/01/29 03:01:06;;;;;;;4.63;3.45;;;22.60;38.60;;;;;;5076205;28;20234;-55
2024/01/29 03:03:33;;;;;;;3.72;3.30;;;22.60;38.60;;;;;;5076188;28;20218;-52
2024/01/29 03:05:59;;;;;;;4.13;3.70;;;22.60;38.60;;;;;;5075441;28;20225;-56
2024/01/29 03:08:26;;;;;;;5.00;3.40;;;22.50;38.50;;;;;;5075984;28;20222;-56
2024/01/29 03:10:53;;;;;;;4.75;3.65;;;22.50;38.50;;;;;;5076032;28;20283;-53
2024/01/29 03:13:20;;;;;;;3.80;3.30;;;22.50;38.50;;;;;;5075543;28;20310;-52
2024/01/29 03:15:48;;;;;;;5.82;4.07;;;22.50;38.50;;;;;;5075691;28;20325;-57
2024/01/29 03:18:15;;;;;;;3.92;3.50;;;22.40;38.40;;;;;;5075857;28;20274;-54
2024/01/29 03:20:42;;;;;;;4.65;3.35;;;22.40;38.40;;;;;;5075500;28;20325;-51
2024/01/29 03:23:10;;;;;;;4.20;3.30;;;22.40;38.60;;;;;;5075387;28;20622;-53
2024/01/29 03:25:37;;;;;;;4.55;3.53;;;22.40;38.60;;;;;;5075472;28;20301;-56
2024/01/29 03:28:04;;;;;;;4.40;3.50;;;22.40;38.50;;;;;;5075358;28;20273;-57
2024/01/29 03:30:31;;;;;;;6.15;4.05;;;22.50;38.60;;;;;;5075652;28;20306;-56
2024/01/29 03:32:59;;;;;;;4.22;3.53;;;22.40;38.50;;;;;;5075278;28;20656;-56
2024/01/29 03:35:26;;;;;;;5.75;3.95;;;22.40;38.50;;;;;;5074793;28;20685;-55
2024/01/29 03:37:53;;;;;;;4.22;3.47;;;22.40;38.50;;;;;;5075196;28;20195;-56
2024/01/29 03:40:20;;;;;;;3.78;3.30;;;22.50;38.60;;;;;;5075620;28;20234;-54
2024/01/29 03:42:46;;;;;;;5.03;3.90;;;22.50;38.60;;;;;;5074637;28;20652;-54
2024/01/29 03:45:12;;;;;;;4.20;3.30;;;22.50;38.60;;;;;;5075209;28;20224;-52
2024/01/29 03:47:39;;;;;;;4.20;3.50;;;22.50;38.50;;;;;;5075065;28;20274;-54
2024/01/29 03:50:08;;;;;;;4.68;3.70;;;22.50;38.50;;;;;;5074829;28;20202;-57
2024/01/29 03:52:35;;;;;;;5.00;3.33;;;22.60;38.60;;;;;;5075193;28;20270;-55
2024/01/29 03:55:02;;;;;;;4.82;3.45;;;22.50;38.50;;;;;;5075092;28;20197;-54
2024/01/29 03:57:29;;;;;;;5.22;3.50;;;22.50;38.50;;;;;;5074699;28;20237;-51
2024/01/29 03:59:56;;;;;;;4.55;3.60;;;22.60;38.60;;;;;;5074845;28;20273;-55
2024/01/29 04:02:23;;;;;;;3.67;3.30;;;22.60;38.60;;;;;;5075060;28;20191;-55
2024/01/29 04:04:50;;;;;;;5.28;3.25;;;22.60;38.60;;;;;;5073196;28;20191;-52
2024/01/29 04:07:18;;;;;;;4.70;3.95;;;22.60;38.60;;;;;;5075198;28;20215;-50
2024/01/29 04:09:45;;;;;;;3.75;3.40;;;22.60;38.60;;;;;;5074900;28;20209;-57
2024/01/29 04:12:12;;;;;;;4.72;3.35;;;22.60;38.60;;;;;;5074742;28;20272;-53
2024/01/29 04:14:39;;;;;;;3.88;3.03;;;22.60;38.60;;;;;;5074668;28;20270;-53
2024/01/29 04:17:07;;;;;;;3.63;3.28;;;22.50;38.50;;;;;;5074629;28;20676;-55
2024/01/29 04:19:34;;;;;;;4.70;3.60;;;22.50;38.80;;;;;;5074702;28;20238;-54
2024/01/29 04:22:01;;;;;;;4.80;3.90;;;22.50;38.90;;;;;;5074363;28;20707;-57
2024/01/29 04:24:29;;;;;;;4.05;3.65;;;22.40;38.90;;;;;;5074268;28;20648;-55
2024/01/29 04:26:56;;;;;;;4.32;3.38;;;22.40;39.00;;;;;;5074552;28;20305;-55
2024/01/29 04:29:23;;;;;;;3.80;3.35;;;22.40;39.10;;;;;;5074279;28;20609;-56
2024/01/29 04:31:50;;;;;;;3.47;2.90;;;22.40;39.10;;;;;;5074402;28;20253;-55
2024/01/29 04:34:17;;;;;;;8.40;3.70;;;22.40;39.10;;;;;;5074060;28;20676;-57
2024/01/29 04:36:44;;;;;;;4.20;3.33;;;22.40;39.10;;;;;;5074248;28;20305;-52
2024/01/29 04:39:11;;;;;;;3.72;3.20;;;22.40;39.10;;;;;;5074372;28;20189;-54
2024/01/29 04:41:39;;;;;;;4.00;3.30;;;22.40;39.00;;;;;;5074291;28;20230;-54
2024/01/29 04:44:06;;;;;;;4.25;3.38;;;22.40;39.10;;;;;;5073867;28;20215;-55
2024/01/29 04:46:32;;;;;;;4.65;3.53;;;22.50;39.10;;;;;;5074163;28;20309;-56
2024/01/29 04:48:59;;;;;;;3.75;3.22;;;22.50;39.10;;;;;;5073800;28;20640;-56
2024/01/29 04:51:27;;;;;;;4.35;3.50;;;22.50;39.10;;;;;;5073557;28;20229;-57
2024/01/29 04:53:53;;;;;;;4.78;3.20;;;22.50;39.10;;;;;;5074026;28;20190;-53
2024/01/29 04:56:20;;;;;;;4.93;3.28;;;22.50;39.10;;;;;;5073712;28;20221;-54
2024/01/29 04:58:48;;;;;;;3.45;3.15;;;22.50;39.10;;;;;;5073556;28;20277;-55
2024/01/29 05:01:15;;;;;;;4.45;3.30;;;22.50;39.00;;;;;;5073735;28;20241;-56
2024/01/29 05:03:42;;;;;;;3.75;2.90;;;22.50;39.00;;;;;;5073492;28;20205;-53
2024/01/29 05:06:09;;;;;;;3.42;3.05;;;22.50;39.10;;;;;;5073447;28;20225;-53
2024/01/29 05:08:36;;;;;;;3.60;2.90;;;22.60;39.10;;;;;;5073701;28;20190;-53
2024/01/29 05:11:03;;;;;;;3.60;3.00;;;22.60;39.10;;;;;;5073773;28;20305;-56
2024/01/29 05:13:30;;;;;;;3.58;3.28;;;22.50;39.10;;;;;;5073258;28;20332;-55
2024/01/29 05:15:58;;;;;;;3.55;3.20;;;22.60;39.10;;;;;;5072653;28;20302;-55
2024/01/29 05:18:25;;;;;;;4.32;3.03;;;22.50;39.20;;;;;;5073563;28;20544;-57
2024/01/29 05:20:52;;;;;;;4.47;2.88;;;22.50;39.00;;;;;;5073115;28;20226;-52
2024/01/29 05:23:19;;;;;;;3.90;3.25;;;22.50;39.10;;;;;;5073077;28;20190;-57
2024/01/29 05:25:46;;;;;;;3.95;3.00;;;22.50;39.80;;;;;;5073370;28;20309;-55
2024/01/29 05:28:13;;;;;;;4.03;3.40;;;22.50;39.30;;;;;;5073019;28;20273;-56
2024/01/29 05:30:40;;;;;;;3.80;3.40;;;22.40;39.20;;;;;;5073338;28;20336;-57
2024/01/29 05:33:08;;;;;;;4.20;3.10;;;22.40;39.40;;;;;;5073369;28;20222;-55
2024/01/29 05:35:35;;;;;;;3.35;3.05;;;22.40;39.40;;;;;;5072703;28;20297;-55
2024/01/29 05:38:02;;;;;;;3.78;3.22;;;22.40;39.60;;;;;;5073212;28;20282;-55
2024/01/29 05:40:28;;;;;;;3.25;2.75;;;22.40;39.50;;;;;;5073108;28;20321;-52
2024/01/29 05:42:55;;;;;;;4.68;3.10;;;22.40;39.50;;;;;;5072531;28;20191;-51
2024/01/29 05:45:22;;;;;;;4.20;3.00;;;22.40;39.40;;;;;;5072904;28;20295;-55
2024/01/29 05:47:49;;;;;;;3.45;3.10;;;22.40;39.40;;;;;;5072699;28;20194;-57
2024/01/29 05:50:17;;;;;;;5.05;3.13;;;22.50;39.50;;;;;;5072277;28;20652;-55
2024/01/29 05:52:44;;;;;;;4.35;3.40;;;22.50;39.50;;;;;;5072602;28;20674;-55
2024/01/29 05:55:11;;;;;;;5.88;3.03;;;22.50;39.50;;;;;;5072446;28;20640;-56
2024/01/29 05:57:38;;;;;;;3.75;3.33;;;22.50;39.50;;;;;;5072114;28;20186;-54
2024/01/29 06:00:10;;;;;;;3.42;2.97;;;22.50;39.50;;;;;;5072373;28;20191;-55
2024/01/29 06:02:42;;;;;;;3.63;3.28;;;22.50;39.50;;;;;;5072464;28;20183;-56
2024/01/29 06:05:10;;;;;;;3.50;3.13;;;22.50;39.50;;;;;;5071937;28;20277;-54
2024/01/29 06:07:38;;;;;;;3.40;3.10;;;22.50;39.40;;;;;;5072379;28;20240;-57
2024/01/29 06:10:06;;;;;;;3.45;3.13;;;22.50;39.40;;;;;;5072695;28;20647;-54
2024/01/29 06:12:33;;;;;;;6.20;2.80;;;22.60;39.50;;;;;;5072279;28;20187;-57
2024/01/29 06:14:59;;;;;;;5.10;3.35;;;22.60;39.50;;;;;;5072600;28;20191;-56
2024/01/29 06:17:26;;;;;;;3.78;2.88;;;22.60;39.50;;;;;;5072352;28;20241;-55
2024/01/29 06:19:53;;;;;;;4.15;3.30;;;22.60;39.50;;;;;;5072184;28;20644;-56
2024/01/29 06:22:20;;;;;;;3.35;2.83;;;22.60;39.40;;;;;;5072476;28;20315;-56
2024/01/29 06:24:48;;;;;;;3.85;3.20;;;22.60;39.40;;;;;;5072390;28;20218;-56
2024/01/29 06:27:15;;;;;;;4.50;2.95;;;22.50;39.40;;;;;;5071144;28;20257;-56
2024/01/29 06:29:42;;;;;;;3.60;2.97;;;22.50;39.40;;;;;;5072435;28;20289;-56
2024/01/29 06:32:09;;;;;;;3.90;3.10;;;22.50;39.50;;;;;;5072519;28;20246;-54
2024/01/29 06:34:37;;;;;;;3.65;3.03;;;22.40;39.50;;;;;;5071665;28;20201;-54
2024/01/29 06:37:03;;;;;;;3.95;3.38;;;22.40;39.60;;;;;;5072243;28;20219;-54
2024/01/29 06:39:32;;;;;;;3.40;2.80;;;22.40;39.70;;;;;;5071938;28;20559;-57
2024/01/29 06:42:00;;;;;;;5.13;3.08;;;22.40;39.70;;;;;;5071823;28;20324;-53
2024/01/29 06:44:27;;;;;;;3.83;3.10;;;22.40;39.80;;;;;;5072246;28;20216;-57
2024/01/29 06:46:54;;;;;;;3.13;2.80;;;22.40;39.80;;;;;;5071880;28;20249;-55
2024/01/29 06:49:30;;;;;;;3.47;2.95;;;22.40;39.80;;;;;;5071853;28;20685;-56
2024/01/29 06:51:57;;;;;;;4.00;3.20;;;22.40;39.80;;;;;;5072024;28;20784;-53
2024/01/29 06:54:24;;;;;;;3.55;3.10;;;22.40;39.70;;;;;;5071737;28;20728;-55
2024/01/29 06:56:52;;;;;;;4.28;3.35;;;22.40;39.70;;;;;;5071536;28;20211;-54
2024/01/29 06:59:20;;;;;;;3.63;3.00;;;22.50;39.80;;;;;;5072111;28;20289;-57
2024/01/29 07:01:47;;;;;;;3.47;2.78;;;22.50;39.80;;;;;;5072106;28;20591;-54
2024/01/29 07:04:14;;;;;;;4.45;2.92;;;22.50;39.80;;;;;;5071565;28;20285;-55
2024/01/29 07:06:42;;;;;;;3.35;2.70;;;22.50;39.80;;;;;;5072165;28;20305;-54
2024/01/29 07:09:09;;;;;;;3.33;2.80;;;22.50;39.70;;;;;;5072014;28;20252;-56
2024/01/29 07:11:36;;;;;;;3.95;2.90;;;22.50;39.70;;;;;;5071718;28;20222;-54
2024/01/29 07:14:02;;;;;;;3.30;2.65;;;22.50;39.70;;;;;;5071881;28;20194;-55
2024/01/29 07:16:31;;;;;;;2.92;2.47;;;22.50;40.30;;;;;;5071702;28;20245;-57
2024/01/29 07:18:59;;;;;;;3.65;2.90;;;22.50;39.70;;;;;;5071843;28;20199;-53
2024/01/29 07:21:26;;;;;;;3.30;3.00;;;22.50;39.70;;;;;;5071953;28;20337;-55
2024/01/29 07:23:53;;;;;;;3.80;2.88;;;22.50;39.70;;;;;;5071625;28;20660;-54
2024/01/29 07:26:20;;;;;;;3.85;3.03;;;22.60;39.70;;;;;;5071309;28;20301;-56
2024/01/29 07:28:47;;;;;;;3.55;2.83;;;22.60;39.70;;;;;;5071523;28;20823;-58
2024/01/29 07:31:14;;;;;;;3.60;3.17;;;22.60;39.70;;;;;;5071835;28;20305;-56
2024/01/29 07:33:42;;;;;;;3.22;2.92;;;22.50;39.60;;;;;;5071439;28;20190;-57
2024/01/29 07:36:09;;;;;;;3.05;2.72;;;22.50;39.70;;;;;;5071647;28;20726;-56
2024/01/29 07:38:36;;;;;;;3.47;3.08;;;22.50;40.30;;;;;;5073482;28;20277;-55
2024/01/29 07:41:03;;;;;;;3.47;3.15;;;22.50;39.70;;;;;;5075046;28;20649;-57
2024/01/29 07:43:30;;;;;;;3.17;2.72;;;22.50;39.90;;;;;;5075102;28;20195;-55
2024/01/29 07:45:57;;;;;;;4.25;3.25;;;22.40;39.90;;;;;;5075237;28;20533;-56
2024/01/29 07:48:24;;;;;;;3.60;3.20;;;22.40;40.00;;;;;;5074662;28;20575;-55
2024/01/29 07:50:52;;;;;;;3.45;3.08;;;22.40;40.00;;;;;;5074995;28;20229;-55
2024/01/29 07:53:19;;;;;;;3.10;2.80;;;22.40;40.10;;;;;;5075235;28;20372;-54
2024/01/29 07:55:46;;;;;;;3.72;2.90;;;22.40;40.00;;;;;;5074495;28;20700;-56
2024/01/29 07:58:13;;;;;;;3.60;3.30;;;22.40;40.00;;;;;;5075055;28;20266;-53
2024/01/29 08:00:40;;;;;;;3.67;2.97;;;22.40;40.00;;;;;;5075012;28;20302;-52
2024/01/29 08:03:07;;;;;;;3.90;2.83;;;22.50;40.00;;;;;;5074283;28;20228;-57
2024/01/29 08:05:35;;;;;;;3.45;2.80;;;22.50;40.00;;;;;;5074648;28;20191;-53
2024/01/29 08:08:04;;;;;;;3.47;2.90;;;22.40;40.50;;;;;;5074686;28;20191;-53
2024/01/29 08:10:31;;;;;;;4.22;3.13;;;22.50;40.00;;;;;;5074482;28;20277;-58
2024/01/29 08:12:57;;;;;;;3.85;3.08;;;22.50;40.00;;;;;;5074487;28;20747;-57
2024/01/29 08:15:27;;;;;;;3.10;2.80;;;22.50;40.00;;;;;;5074337;28;20680;-56
2024/01/29 08:17:55;;;;;;;3.28;2.78;;;22.50;40.00;;;;;;5073982;28;20283;-56
2024/01/29 08:20:22;;;;;;;3.25;2.95;;;22.50;40.00;;;;;;5074601;28;20202;-56
2024/01/29 08:22:49;;;;;;;4.63;3.20;;;22.50;40.00;;;;;;5074522;28;20254;-56
2024/01/29 08:25:18;;;;;;;3.38;3.08;;;22.50;39.90;;;;;;5074214;28;20214;-54
2024/01/29 08:27:45;;;;;;;3.22;2.92;;;22.60;40.00;;;;;;5074611;28;20281;-54
2024/01/29 08:30:12;;;;;;;3.15;2.80;;;22.50;39.90;;;;;;5074223;28;20568;-54
2024/01/29 08:32:40;;;;;;;4.45;2.92;;;22.50;40.00;;;;;;5074361;28;20224;-57
2024/01/29 08:35:08;;;;;;;3.10;2.80;;;22.50;39.90;;;;;;5074342;28;20542;-56
2024/01/29 08:37:35;;;;;;;2.83;2.53;;;22.60;40.00;;;;;;5074067;28;20420;-54
2024/01/29 08:40:03;;;;;;;4.22;2.70;;;22.60;39.90;;;;;;5073707;28;20262;-54
2024/01/29 08:42:31;;;;;;;3.63;3.03;;;22.60;40.00;;;;;;5074496;28;20231;-53
2024/01/29 08:44:58;;;;;;;3.08;2.75;;;22.50;39.90;;;;;;5073921;28;20254;-54
2024/01/29 08:47:25;;;;;;;4.38;2.55;;;22.50;40.00;;;;;;5074082;28;20306;-55
2024/01/29 08:49:52;;;;;;;3.67;2.92;;;22.40;40.00;;;;;;5073348;28;20202;-56
2024/01/29 08:52:19;;;;;;;3.42;3.00;;;22.40;40.10;;;;;;5073809;28;20215;-55
2024/01/29 08:54:46;;;;;;;3.58;2.90;;;22.40;40.10;;;;;;5073608;28;20195;-56
2024/01/29 08:57:13;;;;;;;3.20;2.65;;;22.40;40.20;;;;;;5074092;28;20214;-57
2024/01/29 08:59:42;;;;;;;3.78;2.97;;;22.40;40.30;;;;;;5073931;28;20290;-55
2024/01/29 09:02:08;;;;;;;3.95;2.90;;;22.40;40.20;;;;;;5073584;28;20230;-55
2024/01/29 09:04:35;;;;;;;3.35;2.63;;;22.40;40.20;;;;;;5073601;28;20285;-52
2024/01/29 09:07:02;;;;;;;3.10;2.80;;;22.40;40.10;;;;;;5073990;28;20301;-57
2024/01/29 09:09:29;;;;;;;3.72;3.30;;;22.50;40.20;;;;;;5073069;28;20193;-56
2024/01/29 09:11:56;;;;;;;3.15;2.85;;;22.40;40.10;;;;;;5073514;28;20219;-57
2024/01/29 09:14:24;;;;;;;4.22;3.42;;;22.50;40.20;;;;;;5073549;28;20278;-56
2024/01/29 09:16:52;;;;;;;3.38;2.90;;;22.50;40.20;;;;;;5072775;28;20246;-55
2024/01/29 09:19:20;;;;;;;3.80;3.08;;;22.50;40.20;;;;;;5073522;28;20202;-55
2024/01/29 09:21:50;;;;;;;3.55;2.92;;;22.50;40.20;;;;;;5073063;28;20276;-54
2024/01/29 09:24:18;;;;;;;3.40;3.00;;;22.60;40.20;;;;;;5073037;28;20193;-56
2024/01/29 09:26:44;;;;;;;3.65;3.30;;;22.50;40.10;;;;;;5073552;28;20225;-57
2024/01/29 09:29:11;;;;;;;3.75;3.08;;;22.60;40.20;;;;;;5073229;28;20183;-54
2024/01/29 09:31:38;;;;;;;5.10;3.35;;;22.50;40.20;;;;;;5073053;28;20217;-56
2024/01/29 09:34:06;;;;;;;3.17;2.88;;;22.50;40.80;;;;;;5073242;28;20278;-56
2024/01/29 09:36:35;;;;;;;5.22;3.38;;;22.50;40.20;;;;;;5073313;28;20298;-57
2024/01/29 09:39:02;;;;;;;3.53;2.90;;;22.50;40.10;;;;;;5072602;28;20195;-56
2024/01/29 09:41:34;;;;;;;3.22;2.78;;;22.60;40.10;;;;;;5073076;28;20226;-52
2024/01/29 09:44:05;;;;;;;3.15;2.70;;;22.60;40.10;;;;;;5073049;28;20278;-56
2024/01/29 09:46:34;;;;;;;4.15;3.17;;;22.60;40.10;;;;;;5072709;28;20218;-57
2024/01/29 09:49:01;;;;;;;3.80;3.03;;;22.50;40.00;;;;;;5072985;28;20286;-52
2024/01/29 09:51:30;;;;;;;4.32;3.22;;;22.50;40.20;;;;;;5073003;28;20218;-53
2024/01/29 09:53:58;;;;;;;4.95;3.25;;;22.50;40.20;;;;;;5072546;28;20287;-54
2024/01/29 09:56:25;;;;;;;4.82;3.40;;;22.50;40.20;;;;;;5072620;28;20296;-55
2024/01/29 09:58:52;;;;;;;3.75;3.10;;;22.40;40.20;;;;;;5054627;28;20194;-57
2024/01/29 10:01:20;;;;;;;4.35;3.20;;;22.40;40.30;;;;;;5072217;28;20211;-54
2024/01/29 10:03:48;;;;;;;4.28;3.65;;;22.40;40.40;;;;;;5072405;28;20194;-55
2024/01/29 10:06:15;;;;;;;4.50;3.38;;;22.40;40.50;;;;;;5072401;28;20700;-56
2024/01/29 10:08:46;;;;;;;4.60;3.75;;;22.40;40.70;;;;;;5072238;28;20187;-55
2024/01/29 10:11:13;;;;;;;4.93;3.55;;;22.40;40.80;;;;;;5072390;28;20268;-55
2024/01/29 10:13:40;;;;;;;5.57;3.90;;;22.60;41.00;;;;;;5072529;28;20199;-55
2024/01/29 10:16:08;;;;;;;5.60;4.05;;;22.70;41.00;;;;;;5071933;28;20265;-57
2024/01/29 10:18:35;;;;;;;10.68;4.50;;;22.80;40.70;;;;;;5072235;28;20649;-58
2024/01/29 10:21:03;;;;;;;7.85;3.78;;;22.80;40.80;;;;;;5072258;28;20664;-56
2024/01/29 10:23:30;;;;;;;17.95;4.10;;;22.80;40.90;;;;;;5071642;28;20747;-56
2024/01/29 10:25:59;;;;;;;13.63;4.28;;;22.80;41.00;;;;;;5072311;28;20301;-57
2024/01/29 10:28:26;;;;;;;8.88;3.92;;;22.80;41.20;;;;;;5072332;28;20214;-54
2024/01/29 10:30:54;;;;;;;6.93;4.50;;;22.80;41.50;;;;;;5071648;28;20246;-57
2024/01/29 10:33:22;;;;;;;7.55;4.10;;;22.80;41.90;;;;;;5072284;28;20194;-51
2024/01/29 10:35:49;;;;;;;7.10;4.28;;;22.70;42.30;;;;;;5072139;28;20215;-57
2024/01/29 10:38:21;;;;;;;12.52;4.55;;;22.70;42.70;;;;;;5071834;28;20195;-59
2024/01/29 10:40:50;;;;;;;7.25;4.40;;;22.70;42.80;;;;;;5072274;28;20272;-60
2024/01/29 10:43:19;;;;;;;10.45;4.68;;;22.70;43.00;;;;;;5072280;28;20224;-60
2024/01/29 10:45:49;;;;;;;7.03;4.65;;;22.80;43.10;;;;;;5071736;28;20195;-60
2024/01/29 10:48:21;;;;;;;7.10;4.13;;;22.80;43.00;;;;;;5072260;28;20183;-60
2024/01/29 10:50:48;;;;;;;4.75;3.67;;;22.80;43.00;;;;;;5072223;28;20198;-60
2024/01/29 10:53:17;;;;;;;7.03;3.80;;;22.80;43.70;;;;;;5071497;28;20577;-60
2024/01/29 10:55:44;;;;;;;9.13;4.18;;;22.70;43.00;;;;;;5072120;28;20286;-60
2024/01/29 10:58:13;;;;;;;5.55;4.47;;;22.70;43.00;;;;;;5072014;28;20278;-60
2024/01/29 11:00:43;;;;;;;7.05;4.13;;;22.60;43.00;;;;;;5071714;28;20190;-58
2024/01/29 11:03:12;;;;;;;7.75;4.35;;;22.60;43.10;;;;;;5072032;28;20229;-60
2024/01/29 11:05:40;;;;;;;8.75;4.47;;;22.60;43.00;;;;;;5071672;28;20555;-60
2024/01/29 11:08:12;;;;;;;4.95;3.90;;;22.60;43.10;;;;;;5071702;28;20206;-61
2024/01/29 11:10:38;;;;;;;5.90;4.10;;;22.50;43.00;;;;;;5071970;28;20286;-60
2024/01/29 11:13:07;;;;;;;5.80;4.00;;;22.50;43.00;;;;;;5073013;28;20281;-60
2024/01/29 11:15:33;;;;;;;5.97;4.25;;;22.50;43.10;;;;;;5075226;28;20652;-60
2024/01/29 11:18:02;;;;;;;5.63;4.20;;;22.60;43.10;;;;;;5075461;28;20711;-58
2024/01/29 11:20:32;;;;;;;5.80;3.97;;;22.60;43.60;;;;;;5076154;28;20202;-60
2024/01/29 11:23:02;;;;;;;6.18;4.25;;;22.60;42.90;;;;;;5075390;28;20219;-60
2024/01/29 11:25:28;;;;;;;6.63;4.53;;;22.60;42.90;;;;;;5075757;28;20218;-60
2024/01/29 11:27:57;;;;;;;5.60;4.30;;;22.60;42.80;;;;;;5075388;28;20696;-60
2024/01/29 11:30:25;;;;;;;5.82;4.15;;;22.60;42.70;;;;;;5074997;28;20648;-60
2024/01/29 11:32:54;;;;;;;6.03;4.07;;;22.60;42.70;;;;;;5075767;28;20222;-60
2024/01/29 11:35:24;;;;;;;5.45;4.50;;;22.60;42.70;;;;;;5075451;28;20218;-60
2024/01/29 11:37:51;;;;;;;5.72;4.50;;;22.70;42.70;;;;;;5075126;28;20268;-60
2024/01/29 11:40:34;;;;;;;6.47;4.38;;;22.70;42.70;;;;;;5075193;28;20283;-60
2024/01/29 11:43:03;;;;;;;6.50;4.20;;;22.60;42.50;;;;;;5075376;28;20250;-60
2024/01/29 11:45:30;;;;;;;6.93;4.32;;;22.60;42.50;;;;;;5074937;28;20187;-60
2024/01/29 11:47:59;;;;;;;6.07;4.22;;;22.60;42.40;;;;;;5075253;28;20211;-60
2024/01/29 11:50:27;;;;;;;6.47;4.20;;;22.70;42.40;;;;;;5075254;28;20183;-60
2024/01/29 11:52:55;;;;;;;4.85;4.07;;;22.70;42.40;;;;;;5075031;28;20305;-60
2024/01/29 11:55:22;;;;;;;5.05;4.10;;;22.70;42.20;;;;;;5075442;28;20214;-60
2024/01/29 11:57:52;;;;;;;5.88;4.05;;;22.70;42.20;;;;;;5074908;28;20218;-60
2024/01/29 12:00:19;;;;;;;7.72;4.00;;;22.60;42.10;;;;;;5074445;28;20222;-60
2024/01/29 12:02:48;;;;;;;7.45;3.80;;;22.60;42.10;;;;;;5074923;28;20234;-60
2024/01/29 12:05:17;;;;;;;4.45;3.60;;;22.60;42.20;;;;;;5074666;28;20574;-60
2024/01/29 12:07:46;;;;;;;4.95;4.00;;;22.60;42.20;;;;;;5074269;28;20215;-60
2024/01/29 12:10:13;;;;;;;5.65;4.20;;;22.50;42.20;;;;;;5074695;28;20641;-59
2024/01/29 12:12:39;;;;;;;7.57;3.97;;;22.50;42.20;;;;;;5075103;28;20268;-60
2024/01/29 12:15:09;;;;;;;4.78;3.83;;;22.50;42.20;;;;;;5074497;28;20265;-60
2024/01/29 12:17:38;;;;;;;6.43;4.10;;;22.50;42.20;;;;;;5074491;28;20728;-60
2024/01/29 12:20:08;;;;;;;5.15;4.15;;;22.50;42.20;;;;;;5074995;28;20197;-60
2024/01/29 12:22:35;;;;;;;4.60;3.78;;;22.50;42.30;;;;;;5073935;28;20773;-60
2024/01/29 12:25:03;;;;;;;5.22;4.18;;;22.50;42.20;;;;;;5073358;28;20270;-60
2024/01/29 12:27:30;;;;;;;4.70;3.92;;;22.50;42.10;;;;;;5074452;28;20799;-60
2024/01/29 12:29:58;;;;;;;5.25;3.75;;;22.60;42.10;;;;;;5074498;28;20226;-60
2024/01/29 12:32:25;;;;;;;4.53;3.70;;;22.50;42.00;;;;;;5074403;28;20230;-60
2024/01/29 12:34:52;;;;;;;4.55;3.50;;;22.60;42.10;;;;;;5074124;28;20187;-60
2024/01/29 12:37:21;;;;;;;4.07;3.47;;;22.60;42.00;;;;;;5074330;28;20222;-60
2024/01/29 12:39:52;;;;;;;4.05;3.60;;;22.60;42.00;;;;;;5074309;28;20220;-60
2024/01/29 12:42:21;;;;;;;6.30;3.90;;;22.60;41.90;;;;;;5074411;28;20677;-60
2024/01/29 12:44:50;;;;;;;6.03;4.03;;;22.60;41.80;;;;;;5073890;28;20187;-61
2024/01/29 12:47:18;;;;;;;4.07;3.15;;;22.70;41.90;;;;;;5074350;28;20246;-59